createdAt,value
2019-02-21T00:01:07.490Z,98824.67
2019-02-21T00:02:16.390Z,98825.11
2019-02-21T00:03:24.262Z,98822.67
2019-02-21T00:04:27.072Z,98822.67
2019-02-21T00:05:31.783Z,98827.23
2019-02-21T00:06:39.182Z,98828.12
2019-02-21T00:07:41.554Z,98828.12
2019-02-21T00:08:47.548Z,98830.58
2019-02-21T00:09:50.463Z,98834.34
2019-02-21T00:10:53.742Z,98834.67
2019-02-21T00:11:56.557Z,98834.71
2019-02-21T00:12:59.396Z,98835.52
2019-02-21T00:14:05.397Z,98838.19
2019-02-21T00:15:08.350Z,98830.34
2019-02-21T00:16:11.176Z,98833.59
2019-02-21T00:17:14.010Z,98841.35
2019-02-21T00:18:16.844Z,98833.80
2019-02-21T00:19:19.662Z,98829.50
2019-02-21T00:20:22.853Z,98834.31
2019-02-21T00:21:25.642Z,98829.20
2019-02-21T00:22:28.472Z,98829.20
2019-02-21T00:23:31.694Z,98829.68
2019-02-21T00:24:34.500Z,98831.27
2019-02-21T00:25:38.565Z,98831.27
2019-02-21T00:26:44.101Z,98833.94
2019-02-21T00:27:46.201Z,98839.44
2019-02-21T00:28:49.001Z,98836.19
2019-02-21T00:29:51.807Z,98836.94
2019-02-21T00:30:57.440Z,98839.28
2019-02-21T00:32:00.326Z,98839.28
2019-02-21T00:33:03.428Z,98840.81
2019-02-21T00:34:06.252Z,98832.16
2019-02-21T00:35:09.082Z,98844.20
2019-02-21T00:36:14.970Z,98846.38
2019-02-21T00:37:17.844Z,98843.69
2019-02-21T00:38:20.650Z,98837.47
2019-02-21T00:39:23.777Z,98843.80
2019-02-21T00:40:26.608Z,98847.80
2019-02-21T00:41:29.454Z,98843.25
2019-02-21T00:42:32.321Z,98843.25
2019-02-21T00:43:38.338Z,98849.91
2019-02-21T00:44:41.157Z,98844.72
2019-02-21T00:45:44.284Z,98846.75
2019-02-21T00:46:49.417Z,98848.20
2019-02-21T00:47:52.288Z,98845.81
2019-02-21T00:48:55.055Z,98847.17
2019-02-21T00:49:57.882Z,98852.83
2019-02-21T00:51:01.585Z,98852.83
2019-02-21T00:52:04.821Z,98854.25
2019-02-21T00:53:07.706Z,98850.30
2019-02-21T00:54:13.847Z,98850.30
2019-02-21T00:55:20.581Z,98844.67
2019-02-21T00:56:23.842Z,98854.02
2019-02-21T00:57:26.724Z,98853.69
2019-02-21T00:58:29.875Z,98857.63
2019-02-21T00:59:35.151Z,98857.63
2019-02-21T01:00:46.230Z,98849.11
2019-02-21T01:01:42.416Z,98862.08
2019-02-21T01:02:45.267Z,98863.95
2019-02-21T01:03:48.675Z,98869.19
2019-02-21T01:04:54.824Z,98866.69
2019-02-21T01:05:59.610Z,98866.69
2019-02-21T01:07:02.524Z,98853.86
2019-02-21T01:08:05.747Z,98853.86
2019-02-21T01:09:08.645Z,98856.31
2019-02-21T01:10:11.435Z,98869.48
2019-02-21T01:11:14.655Z,98859.05
2019-02-21T01:12:17.499Z,98865.09
2019-02-21T01:13:20.343Z,98857.30
2019-02-21T01:14:23.280Z,98857.30
2019-02-21T01:15:26.089Z,98853.86
2019-02-21T01:16:29.931Z,98853.86
2019-02-21T01:17:33.025Z,98856.72
2019-02-21T01:18:35.829Z,98860.49
2019-02-21T01:19:39.161Z,98860.49
2019-02-21T01:20:41.960Z,98863.72
2019-02-21T01:21:44.776Z,98866.37
2019-02-21T01:22:48.086Z,98865.27
2019-02-21T01:23:51.182Z,98865.27
2019-02-21T01:24:54.126Z,98875.16
2019-02-21T01:25:57.039Z,98875.16
2019-02-21T01:26:59.985Z,98866.16
2019-02-21T01:28:02.983Z,98863.55
2019-02-21T01:29:05.789Z,98863.43
2019-02-21T01:30:08.995Z,98863.43
2019-02-21T01:31:11.856Z,98873.59
2019-02-21T01:32:14.691Z,98877.49
2019-02-21T01:33:17.547Z,98872.99
2019-02-21T01:34:20.367Z,98870.15
2019-02-21T01:35:23.632Z,98870.15
2019-02-21T01:36:29.583Z,98873.69
2019-02-21T01:37:32.412Z,98866.52
2019-02-21T01:38:35.250Z,98865.36
2019-02-21T01:39:38.049Z,98865.36
2019-02-21T01:40:40.940Z,98856.14
2019-02-21T01:41:43.752Z,98853.98
2019-02-21T01:42:46.849Z,98856.38
2019-02-21T01:43:49.752Z,98856.38
2019-02-21T01:44:52.578Z,98848.82
2019-02-21T01:45:55.379Z,98848.82
2019-02-21T01:46:58.275Z,98862.70
2019-02-21T01:48:01.101Z,98860.63
2019-02-21T01:49:04.286Z,98858.95
2019-02-21T01:50:07.121Z,98851.57
2019-02-21T01:51:09.920Z,98851.57
2019-02-21T01:52:12.799Z,98857.02
2019-02-21T01:53:16.046Z,98847.66
2019-02-21T01:54:18.947Z,98861.11
2019-02-21T01:55:22.102Z,98865.03
2019-02-21T01:56:27.113Z,98867.71
2019-02-21T01:57:29.984Z,98866.31
2019-02-21T01:58:32.773Z,98871.45
2019-02-21T01:59:35.683Z,98862.28
2019-02-21T02:00:38.496Z,98852.00
2019-02-21T02:01:41.622Z,98861.05
2019-02-21T02:02:44.414Z,98861.25
2019-02-21T02:03:47.211Z,98853.89
2019-02-21T02:04:50.137Z,98853.89
2019-02-21T02:05:53.018Z,98860.52
2019-02-21T02:06:56.325Z,98860.25
2019-02-21T02:07:59.457Z,98859.69
2019-02-21T02:09:02.325Z,98852.17
2019-02-21T02:10:05.229Z,98846.73
2019-02-21T02:11:08.054Z,98858.32
2019-02-21T02:12:10.915Z,98854.50
2019-02-21T02:13:24.090Z,98855.83
2019-02-21T02:14:18.230Z,98856.34
2019-02-21T02:15:21.124Z,98856.34
2019-02-21T02:16:24.452Z,98858.25
2019-02-21T02:17:27.330Z,98849.03
2019-02-21T02:18:30.113Z,98849.03
2019-02-21T02:19:32.893Z,98861.77
2019-02-21T02:20:36.489Z,98861.77
2019-02-21T02:21:39.295Z,98855.00
2019-02-21T02:22:42.587Z,98849.29
2019-02-21T02:23:45.448Z,98853.77
2019-02-21T02:24:48.313Z,98862.51
2019-02-21T02:25:51.132Z,98869.37
2019-02-21T02:26:54.229Z,98866.05
2019-02-21T02:27:57.102Z,98864.42
2019-02-21T02:29:00.404Z,98861.74
2019-02-21T02:30:03.224Z,98860.14
2019-02-21T02:31:06.071Z,98859.11
2019-02-21T02:32:09.797Z,98858.26
2019-02-21T02:33:13.099Z,98860.00
2019-02-21T02:34:15.921Z,98855.56
2019-02-21T02:35:18.700Z,98863.39
2019-02-21T02:36:21.525Z,98859.91
2019-02-21T02:37:24.330Z,98865.17
2019-02-21T02:38:27.509Z,98864.71
2019-02-21T02:39:30.928Z,98854.27
2019-02-21T02:40:34.130Z,98854.27
2019-02-21T02:41:36.940Z,98857.74
2019-02-21T02:42:39.730Z,98865.00
2019-02-21T02:43:42.497Z,98861.45
2019-02-21T02:44:48.160Z,98845.92
2019-02-21T02:45:51.298Z,98845.92
2019-02-21T02:46:54.097Z,98848.61
2019-02-21T02:47:56.893Z,98846.78
2019-02-21T02:48:59.739Z,98849.47
2019-02-21T02:50:02.650Z,98853.31
2019-02-21T02:51:05.617Z,98851.03
2019-02-21T02:52:09.148Z,98862.14
2019-02-21T02:53:12.047Z,98857.45
2019-02-21T02:54:14.829Z,98862.23
2019-02-21T02:55:17.709Z,98859.05
2019-02-21T02:56:20.940Z,98858.79
2019-02-21T02:57:24.126Z,98858.79
2019-02-21T02:58:27.204Z,98859.52
2019-02-21T02:59:40.403Z,98861.69
2019-02-21T03:00:34.518Z,98854.35
2019-02-21T03:01:37.363Z,98861.56
2019-02-21T03:02:40.225Z,98866.04
2019-02-21T03:03:43.044Z,98867.95
2019-02-21T03:04:46.173Z,98868.50
2019-02-21T03:05:48.998Z,98864.16
2019-02-21T03:06:51.875Z,98856.11
2019-02-21T03:07:54.974Z,98856.08
2019-02-21T03:08:58.053Z,98856.08
2019-02-21T03:10:01.230Z,98862.05
2019-02-21T03:11:04.332Z,98862.05
2019-02-21T03:12:07.138Z,98862.11
2019-02-21T03:13:09.999Z,98858.60
2019-02-21T03:14:12.923Z,98855.17
2019-02-21T03:15:16.181Z,98858.45
2019-02-21T03:16:18.997Z,98857.71
2019-02-21T03:17:23.926Z,98855.39
2019-02-21T03:18:31.650Z,98854.56
2019-02-21T03:19:35.504Z,98863.23
2019-02-21T03:20:38.526Z,98865.34
2019-02-21T03:21:42.278Z,98865.83
2019-02-21T03:22:45.138Z,98865.83
2019-02-21T03:23:48.424Z,98854.11
2019-02-21T03:24:51.351Z,98861.91
2019-02-21T03:25:54.278Z,98855.03
2019-02-21T03:26:57.151Z,98856.66
2019-02-21T03:28:00.050Z,98860.66
2019-02-21T03:29:02.832Z,98866.39
2019-02-21T03:30:06.048Z,98863.84
2019-02-21T03:31:08.921Z,98876.03
2019-02-21T03:32:11.687Z,98877.56
2019-02-21T03:33:14.632Z,98877.56
2019-02-21T03:34:17.455Z,98874.59
2019-02-21T03:35:20.350Z,98873.68
2019-02-21T03:36:23.419Z,98873.68
2019-02-21T03:37:26.287Z,98862.56
2019-02-21T03:38:29.105Z,98863.88
2019-02-21T03:39:31.953Z,98863.88
2019-02-21T03:40:34.786Z,98861.79
2019-02-21T03:41:37.604Z,98861.79
2019-02-21T03:42:40.675Z,98863.13
2019-02-21T03:43:43.829Z,98859.36
2019-02-21T03:44:46.802Z,98860.70
2019-02-21T03:45:49.827Z,98863.42
2019-02-21T03:46:52.685Z,98860.22
2019-02-21T03:47:55.499Z,98862.41
2019-02-21T03:48:58.612Z,98861.43
2019-02-21T03:50:01.485Z,98859.15
2019-02-21T03:51:04.290Z,98866.12
2019-02-21T03:52:07.093Z,98866.12
2019-02-21T03:53:11.628Z,98872.03
2019-02-21T03:54:14.442Z,98864.31
2019-02-21T03:55:17.519Z,98871.61
2019-02-21T03:56:20.275Z,98871.61
2019-02-21T03:57:23.087Z,98867.84
2019-02-21T03:58:25.960Z,98868.83
2019-02-21T03:59:28.736Z,98868.08
2019-02-21T04:00:31.531Z,98869.73
2019-02-21T04:01:34.625Z,98870.27
2019-02-21T04:02:37.465Z,98870.73
2019-02-21T04:03:42.069Z,98869.16
2019-02-21T04:04:46.786Z,98870.81
2019-02-21T04:05:49.579Z,98869.92
2019-02-21T04:06:55.827Z,98860.98
2019-02-21T04:08:01.709Z,98862.59
2019-02-21T04:09:04.784Z,98866.66
2019-02-21T04:10:08.772Z,98864.02
2019-02-21T04:11:11.533Z,98865.16
2019-02-21T04:12:14.322Z,98853.54
2019-02-21T04:13:17.604Z,98862.44
2019-02-21T04:14:23.836Z,98865.41
2019-02-21T04:15:26.695Z,98865.41
2019-02-21T04:16:29.500Z,98860.75
2019-02-21T04:17:32.284Z,98846.38
2019-02-21T04:18:35.161Z,98846.38
2019-02-21T04:19:37.950Z,98860.78
2019-02-21T04:20:41.054Z,98861.84
2019-02-21T04:21:43.827Z,98856.58
2019-02-21T04:22:46.640Z,98853.02
2019-02-21T04:23:49.530Z,98858.36
2019-02-21T04:24:52.402Z,98856.21
2019-02-21T04:25:55.208Z,98860.81
2019-02-21T04:26:58.528Z,98859.41
2019-02-21T04:28:01.402Z,98859.41
2019-02-21T04:29:04.255Z,98860.47
2019-02-21T04:30:07.349Z,98868.34
2019-02-21T04:31:10.132Z,98861.30
2019-02-21T04:32:16.893Z,98861.30
2019-02-21T04:33:20.381Z,98862.90
2019-02-21T04:34:23.206Z,98858.95
2019-02-21T04:35:26.082Z,98861.50
2019-02-21T04:36:28.849Z,98857.52
2019-02-21T04:37:31.662Z,98857.52
2019-02-21T04:38:34.452Z,98853.28
2019-02-21T04:39:37.528Z,98850.66
2019-02-21T04:40:40.427Z,98850.66
2019-02-21T04:41:43.762Z,98857.98
2019-02-21T04:42:46.531Z,98853.75
2019-02-21T04:43:49.350Z,98862.65
2019-02-21T04:44:52.160Z,98850.55
2019-02-21T04:45:55.259Z,98850.55
2019-02-21T04:46:58.142Z,98861.94
2019-02-21T04:48:00.934Z,98869.20
2019-02-21T04:49:05.948Z,98869.20
2019-02-21T04:50:08.713Z,98868.31
2019-02-21T04:51:11.505Z,98866.87
2019-02-21T04:52:14.622Z,98869.34
2019-02-21T04:53:17.428Z,98864.02
2019-02-21T04:54:20.243Z,98864.02
2019-02-21T04:55:25.365Z,98866.91
2019-02-21T04:56:28.157Z,98864.73
2019-02-21T04:57:30.955Z,98854.80
2019-02-21T04:58:34.035Z,98867.44
2019-02-21T04:59:36.824Z,98859.78
2019-02-21T05:00:39.662Z,98863.63
2019-02-21T05:01:42.477Z,98866.28
2019-02-21T05:02:45.319Z,98866.28
2019-02-21T05:03:48.110Z,98866.76
2019-02-21T05:04:51.189Z,98863.03
2019-02-21T05:05:53.984Z,98862.00
2019-02-21T05:06:57.810Z,98862.00
2019-02-21T05:08:00.580Z,98859.99
2019-02-21T05:09:04.211Z,98861.81
2019-02-21T05:10:06.975Z,98863.33
2019-02-21T05:11:10.060Z,98862.66
2019-02-21T05:12:14.032Z,98861.59
2019-02-21T05:13:16.839Z,98862.16
2019-02-21T05:14:19.705Z,98855.42
2019-02-21T05:15:22.488Z,98855.42
2019-02-21T05:16:25.267Z,98858.52
2019-02-21T05:17:29.610Z,98858.07
2019-02-21T05:18:32.411Z,98859.61
2019-02-21T05:19:35.270Z,98857.98
2019-02-21T05:20:38.075Z,98857.98
2019-02-21T05:21:40.938Z,98857.17
2019-02-21T05:22:43.716Z,98847.88
2019-02-21T05:23:46.829Z,98853.84
2019-02-21T05:24:49.625Z,98854.58
2019-02-21T05:25:54.236Z,98859.45
2019-02-21T05:27:01.735Z,98864.11
2019-02-21T05:28:41.195Z,98864.11
2019-02-21T05:29:43.741Z,98858.83
2019-02-21T05:30:47.578Z,98856.77
2019-02-21T05:32:21.521Z,98855.12
2019-02-21T05:33:41.482Z,98855.12
2019-02-21T05:34:59.908Z,98847.41
2019-02-21T05:36:21.337Z,98856.59
2019-02-21T05:37:41.521Z,98860.61
2019-02-21T05:39:00.924Z,98854.42
2019-02-21T05:40:28.847Z,98855.50
2019-02-21T05:41:44.450Z,98854.64
2019-02-21T05:43:21.200Z,98860.80
2019-02-21T05:44:40.908Z,98855.74
2019-02-21T05:46:15.471Z,98859.28
2019-02-21T05:47:35.684Z,98859.28
2019-02-21T05:49:00.221Z,98852.07
2019-02-21T05:50:19.508Z,98855.22
2019-02-21T05:51:44.279Z,98849.33
2019-02-21T05:53:02.217Z,98849.33
2019-02-21T05:54:26.490Z,98851.41
2019-02-21T05:55:37.447Z,98851.98
2019-02-21T05:57:04.921Z,98856.33
2019-02-21T05:58:32.275Z,98859.09
2019-02-21T05:59:52.203Z,98859.09
2019-02-21T06:01:07.949Z,98854.86
2019-02-21T06:02:29.496Z,98854.86
2019-02-21T06:03:46.390Z,98858.88
2019-02-21T06:05:01.571Z,98854.61
2019-02-21T06:06:22.998Z,98857.40
2019-02-21T06:07:42.957Z,98858.45
2019-02-21T06:09:08.102Z,98862.93
2019-02-21T06:10:32.831Z,98854.28
2019-02-21T06:12:03.192Z,98852.65
2019-02-21T06:13:17.788Z,98863.78
2019-02-21T06:14:36.368Z,98865.36
2019-02-21T06:16:10.125Z,98865.36
2019-02-21T06:17:34.049Z,98858.49
2019-02-21T06:18:55.958Z,98858.49
2019-02-21T06:20:33.756Z,98866.47
2019-02-21T06:22:10.002Z,98867.47
2019-02-21T06:23:27.288Z,98865.60
2019-02-21T06:24:35.232Z,98864.97
2019-02-21T06:25:51.137Z,98864.71
2019-02-21T06:27:06.106Z,98864.64
2019-02-21T06:28:12.599Z,98864.09
2019-02-21T06:29:46.286Z,98864.09
2019-02-21T06:43:48.773Z,98899.48
2019-02-21T06:44:51.617Z,98898.41
2019-02-21T06:45:54.489Z,98901.84
2019-02-21T06:46:57.779Z,98893.80
2019-02-21T06:48:00.673Z,98893.80
2019-02-21T06:49:05.165Z,98892.09
2019-02-21T06:50:10.345Z,98887.22
2019-02-21T06:51:13.206Z,98885.91
2019-02-21T06:52:16.051Z,98882.39
2019-02-21T06:53:18.883Z,98877.98
2019-02-21T06:54:22.537Z,98884.99
2019-02-21T06:55:28.291Z,98871.00
2019-02-21T06:56:31.172Z,98864.48
2019-02-21T06:57:36.446Z,98866.17
2019-02-21T06:58:41.976Z,98871.59
2019-02-21T06:59:46.053Z,98879.65
2019-02-21T07:00:49.998Z,98880.16
2019-02-21T07:01:52.824Z,98879.10
2019-02-21T07:02:55.649Z,98879.10
2019-02-21T07:03:58.856Z,98886.14
2019-02-21T07:05:01.777Z,98890.49
2019-02-21T07:06:05.021Z,98887.56
2019-02-21T07:07:07.940Z,98885.11
2019-02-21T07:08:10.859Z,98891.48
2019-02-21T07:09:13.625Z,98891.48
2019-02-21T07:10:16.416Z,98897.00
2019-02-21T07:11:19.306Z,98890.80
2019-02-21T07:12:31.471Z,98898.59
2019-02-21T07:13:34.905Z,98900.72
2019-02-21T07:14:37.721Z,98900.72
2019-02-21T07:15:40.567Z,98896.75
2019-02-21T07:16:43.417Z,98895.45
2019-02-21T07:17:49.601Z,98885.77
2019-02-21T07:18:52.814Z,98892.58
2019-02-21T07:19:55.663Z,98889.70
2019-02-21T07:20:58.462Z,98886.25
2019-02-21T07:22:01.277Z,98897.86
2019-02-21T07:23:04.094Z,98902.05
2019-02-21T07:24:06.962Z,98893.92
2019-02-21T07:25:42.152Z,98899.34
2019-02-21T07:26:46.738Z,98898.58
2019-02-21T07:27:54.527Z,98905.84
2019-02-21T07:28:58.366Z,98905.70
2019-02-21T07:30:01.332Z,98907.12
2019-02-21T07:31:04.430Z,98907.12
2019-02-21T07:32:07.316Z,98909.52
2019-02-21T07:33:10.261Z,98909.52
2019-02-21T07:34:13.083Z,98905.69
2019-02-21T07:35:15.871Z,98912.13
2019-02-21T07:36:21.166Z,98908.67
2019-02-21T07:37:24.355Z,98903.05
2019-02-21T07:38:29.847Z,98912.22
2019-02-21T07:39:35.977Z,98921.90
2019-02-21T07:40:37.103Z,98916.24
2019-02-21T07:41:41.684Z,98917.55
2019-02-21T07:42:48.281Z,98923.52
2019-02-21T07:43:51.971Z,98918.46
2019-02-21T07:44:54.931Z,98910.10
2019-02-21T07:45:57.829Z,98909.55
2019-02-21T07:47:00.726Z,98920.87
2019-02-21T07:48:05.135Z,98921.65
2019-02-21T07:49:11.287Z,98921.65
2019-02-21T07:50:16.930Z,98918.45
2019-02-21T07:51:19.783Z,98918.45
2019-02-21T07:52:22.662Z,98922.49
2019-02-21T07:53:25.483Z,98922.49
2019-02-21T07:54:28.343Z,98916.80
2019-02-21T07:55:33.924Z,98920.89
2019-02-21T07:56:42.028Z,98915.51
2019-02-21T07:57:42.084Z,98922.56
2019-02-21T07:58:44.963Z,98928.25
2019-02-21T07:59:47.755Z,98927.95
2019-02-21T08:00:50.630Z,98917.38
2019-02-21T08:01:53.417Z,98934.91
2019-02-21T08:02:57.937Z,98934.91
2019-02-21T08:04:00.726Z,98934.16
2019-02-21T08:05:05.522Z,98931.41
2019-02-21T08:06:08.305Z,98938.97
2019-02-21T08:07:11.414Z,98941.13
2019-02-21T08:08:16.224Z,98935.50
2019-02-21T08:09:20.399Z,98951.95
2019-02-21T08:10:33.077Z,98949.31
2019-02-21T08:11:28.133Z,98953.67
2019-02-21T08:12:30.948Z,98946.09
2019-02-21T08:13:34.096Z,98946.09
2019-02-21T08:14:38.790Z,98958.80
2019-02-21T08:15:41.623Z,98958.25
2019-02-21T08:16:45.856Z,98958.25
2019-02-21T08:17:49.697Z,98957.45
2019-02-21T08:18:52.941Z,98963.36
2019-02-21T08:20:07.282Z,98954.22
2019-02-21T08:21:00.286Z,98953.97
2019-02-21T08:22:03.215Z,98956.11
2019-02-21T08:23:06.097Z,98943.14
2019-02-21T08:24:09.509Z,98943.14
2019-02-21T08:25:12.561Z,98949.10
2019-02-21T08:26:15.813Z,98963.94
2019-02-21T08:27:20.932Z,98963.94
2019-02-21T08:28:24.266Z,98965.56
2019-02-21T08:29:31.529Z,98967.19
2019-02-21T08:30:34.429Z,98962.60
2019-02-21T08:31:37.243Z,98969.09
2019-02-21T08:32:57.311Z,98969.09
2019-02-21T08:34:07.868Z,98971.51
2019-02-21T08:35:12.012Z,98963.36
2019-02-21T08:36:17.713Z,98964.95
2019-02-21T08:37:20.530Z,98964.95
2019-02-21T08:38:26.396Z,98968.51
2019-02-21T08:39:34.314Z,98976.89
2019-02-21T08:40:37.234Z,98976.89
2019-02-21T08:41:40.444Z,98979.59
2019-02-21T08:42:46.248Z,98977.70
2019-02-21T08:43:51.334Z,98982.03
2019-02-21T08:44:55.258Z,98982.03
2019-02-21T08:45:58.083Z,98986.09
2019-02-21T08:47:01.063Z,98990.40
2019-02-21T08:48:05.256Z,98987.09
2019-02-21T08:49:08.511Z,98988.98
2019-02-21T08:50:14.329Z,98992.25
2019-02-21T08:51:18.408Z,98992.25
2019-02-21T08:52:26.415Z,98993.09
2019-02-21T08:53:31.783Z,98994.44
2019-02-21T08:54:36.728Z,98993.38
2019-02-21T08:55:41.960Z,98993.38
2019-02-21T08:56:44.801Z,98990.20
2019-02-21T08:57:47.752Z,98987.48
2019-02-21T08:58:50.850Z,122438.84
2019-02-21T08:59:54.494Z,152157.36
2019-02-21T09:01:01.738Z,113776.53
2019-02-21T09:02:06.883Z,98969.05
2019-02-21T09:03:09.740Z,98992.62
2019-02-21T09:04:26.340Z,98985.05
2019-02-21T09:05:17.161Z,98985.05
2019-02-21T09:06:20.536Z,122438.84
2019-02-21T09:07:27.783Z,122438.84
2019-02-21T09:08:37.869Z,113776.53
2019-02-21T09:09:40.798Z,98993.30
2019-02-21T09:10:43.564Z,98993.30
2019-02-21T09:11:46.521Z,98986.53
2019-02-21T09:12:49.352Z,122438.84
2019-02-21T09:13:56.013Z,122438.84
2019-02-21T09:14:58.575Z,122438.84
2019-02-21T09:16:01.375Z,98983.10
2019-02-21T09:17:04.601Z,98971.16
2019-02-21T09:18:11.506Z,98976.46
2019-02-21T09:19:17.638Z,98985.11
2019-02-21T09:20:20.525Z,98985.11
2019-02-21T09:21:24.397Z,98969.94
2019-02-21T09:22:27.227Z,98969.78
2019-02-21T09:23:30.040Z,98966.05
2019-02-21T09:24:39.982Z,98966.05
2019-02-21T09:25:37.358Z,98968.20
2019-02-21T09:26:40.163Z,98968.20
2019-02-21T09:27:42.998Z,98984.80
2019-02-21T09:28:45.802Z,98984.80
2019-02-21T09:29:52.484Z,98977.58
2019-02-21T09:30:56.147Z,98977.21
2019-02-21T09:32:01.332Z,98977.21
2019-02-21T09:33:17.009Z,98967.98
2019-02-21T09:34:20.782Z,98967.98
2019-02-21T09:35:16.258Z,98964.20
2019-02-21T09:36:19.807Z,98963.20
2019-02-21T09:37:29.894Z,98962.75
2019-02-21T09:38:34.860Z,98970.59
2019-02-21T09:39:37.799Z,98970.20
2019-02-21T09:40:42.671Z,98970.20
2019-02-21T09:41:48.229Z,98965.92
2019-02-21T09:42:50.206Z,98972.37
2019-02-21T09:43:53.466Z,98971.82
2019-02-21T09:44:56.315Z,98971.82
2019-02-21T09:45:59.184Z,98970.83
2019-02-21T09:47:02.143Z,98974.98
2019-02-21T09:48:04.970Z,98984.16
2019-02-21T09:49:08.041Z,98982.63
2019-02-21T09:50:11.143Z,98979.30
2019-02-21T09:51:13.976Z,98985.98
2019-02-21T09:52:16.967Z,98988.78
2019-02-21T09:53:20.207Z,98983.34
2019-02-21T09:54:24.282Z,98987.78
2019-02-21T09:55:29.629Z,98992.41
2019-02-21T09:56:32.465Z,98993.63
2019-02-21T09:57:35.363Z,98996.34
2019-02-21T09:58:38.286Z,98996.34
2019-02-21T09:59:43.707Z,98995.78
2019-02-21T10:00:47.874Z,98989.84
2019-02-21T10:01:53.184Z,98994.00
2019-02-21T10:02:56.795Z,98987.19
2019-02-21T10:04:00.290Z,98994.10
2019-02-21T10:05:05.366Z,98989.88
2019-02-21T10:06:08.348Z,98989.45
2019-02-21T10:07:20.844Z,98981.59
2019-02-21T10:08:27.451Z,98981.59
2019-02-21T10:09:31.129Z,98988.49
2019-02-21T10:10:33.935Z,98987.80
2019-02-21T10:11:36.770Z,98985.44
2019-02-21T10:12:39.725Z,98995.09
2019-02-21T10:13:43.947Z,98992.41
2019-02-21T10:14:46.768Z,98990.61
2019-02-21T10:15:49.977Z,98993.44
2019-02-21T10:16:53.359Z,98993.44
2019-02-21T10:17:56.380Z,98996.55
2019-02-21T10:18:59.215Z,99006.23
2019-02-21T10:20:04.254Z,98997.92
2019-02-21T10:21:09.699Z,98997.92
2019-02-21T10:22:16.011Z,99005.31
2019-02-21T10:23:24.402Z,98999.12
2019-02-21T10:24:27.335Z,99003.61
2019-02-21T10:25:30.159Z,99003.25
2019-02-21T10:26:36.668Z,99003.25
2019-02-21T10:27:41.684Z,99007.17
2019-02-21T10:28:45.308Z,99002.81
2019-02-21T10:29:50.902Z,99002.81
2019-02-21T10:30:53.547Z,99004.58
2019-02-21T10:31:56.359Z,99011.56
2019-02-21T10:32:59.225Z,99004.20
2019-02-21T10:34:08.472Z,99013.38
2019-02-21T10:35:14.465Z,99014.58
2019-02-21T10:36:17.358Z,99008.91
2019-02-21T10:37:20.235Z,99013.75
2019-02-21T10:38:25.810Z,99013.75
2019-02-21T10:39:28.586Z,99012.70
2019-02-21T10:40:35.837Z,99012.70
2019-02-21T10:41:38.690Z,99017.17
2019-02-21T10:42:41.513Z,99009.30
2019-02-21T10:43:44.351Z,99009.30
2019-02-21T10:44:47.288Z,99007.69
2019-02-21T10:45:50.188Z,99015.40
2019-02-21T10:46:53.008Z,99012.41
2019-02-21T10:47:55.906Z,99012.41
2019-02-21T10:49:04.285Z,99008.80
2019-02-21T10:50:07.141Z,99011.19
2019-02-21T10:51:10.018Z,99005.48
2019-02-21T10:52:12.859Z,99009.02
2019-02-21T10:53:16.154Z,99008.03
2019-02-21T10:54:19.080Z,99002.22
2019-02-21T10:55:25.168Z,99002.22
2019-02-21T10:56:28.417Z,99008.19
2019-02-21T10:57:33.774Z,99006.41
2019-02-21T10:58:36.705Z,99007.59
2019-02-21T10:59:46.786Z,99009.39
2019-02-21T11:00:44.816Z,99010.51
2019-02-21T11:01:47.664Z,99010.77
2019-02-21T11:02:50.456Z,99004.20
2019-02-21T11:03:58.899Z,99004.20
2019-02-21T11:05:01.848Z,98994.06
2019-02-21T11:06:05.198Z,98989.06
2019-02-21T11:07:07.970Z,98986.28
2019-02-21T11:08:10.846Z,98981.89
2019-02-21T11:09:17.698Z,98984.66
2019-02-21T11:10:20.958Z,98986.40
2019-02-21T11:11:26.556Z,98981.78
2019-02-21T11:12:29.978Z,98983.31
2019-02-21T11:13:32.817Z,98971.84
2019-02-21T11:14:47.030Z,98969.30
2019-02-21T11:15:42.180Z,98969.30
2019-02-21T11:16:45.028Z,98975.89
2019-02-21T11:17:47.941Z,98973.86
2019-02-21T11:18:51.366Z,98972.07
2019-02-21T11:19:56.556Z,98972.07
2019-02-21T11:20:59.831Z,98964.97
2019-02-21T11:22:02.637Z,98966.73
2019-02-21T11:23:07.084Z,98958.80
2019-02-21T11:24:09.927Z,98962.77
2019-02-21T11:25:13.106Z,98962.77
2019-02-21T11:26:17.722Z,98958.34
2019-02-21T11:27:20.559Z,98959.48
2019-02-21T11:28:26.373Z,98951.16
2019-02-21T11:29:36.439Z,98958.50
2019-02-21T11:43:04.581Z,98957.64
2019-02-21T11:44:11.256Z,98959.12
2019-02-21T11:45:19.616Z,98959.44
2019-02-21T11:46:24.170Z,98950.45
2019-02-21T11:47:27.162Z,98950.45
2019-02-21T11:48:30.054Z,98942.44
2019-02-21T11:49:34.055Z,98944.06
2019-02-21T11:50:39.551Z,98950.23
2019-02-21T11:51:42.500Z,98945.16
2019-02-21T11:52:45.520Z,98945.16
2019-02-21T11:53:48.669Z,98939.80
2019-02-21T11:54:53.507Z,98932.35
2019-02-21T11:56:15.779Z,98938.34
2019-02-21T11:57:21.193Z,98929.48
2019-02-21T11:58:24.078Z,98937.48
2019-02-21T11:59:32.131Z,98933.88
2019-02-21T12:00:35.207Z,98938.58
2019-02-21T12:01:39.736Z,98941.91
2019-02-21T12:02:42.719Z,98941.91
2019-02-21T12:03:47.863Z,98939.67
2019-02-21T12:04:50.761Z,98938.58
2019-02-21T12:05:54.866Z,98934.50
2019-02-21T12:06:58.004Z,98954.67
2019-02-21T12:08:00.820Z,98954.67
2019-02-21T12:09:09.132Z,98940.84
2019-02-21T12:10:09.359Z,98947.47
2019-02-21T12:11:12.616Z,98945.19
2019-02-21T12:12:17.012Z,98938.53
2019-02-21T12:13:21.633Z,98938.53
2019-02-21T12:14:24.788Z,98944.35
2019-02-21T12:15:31.193Z,98943.08
2019-02-21T12:16:37.816Z,98944.92
2019-02-21T12:17:42.822Z,98943.25
2019-02-21T12:18:46.896Z,98944.23
2019-02-21T12:20:06.289Z,98943.93
2019-02-21T12:21:06.897Z,98943.94
2019-02-21T12:22:09.703Z,98943.94
2019-02-21T12:23:12.561Z,98943.99
2019-02-21T12:24:19.489Z,98943.99
2019-02-21T12:25:26.068Z,98946.56
2019-02-21T12:26:29.254Z,98950.70
2019-02-21T12:27:38.205Z,98949.34
2019-02-21T12:28:45.997Z,98941.61
2019-02-21T12:29:48.927Z,98949.23
2019-02-21T12:30:54.686Z,98942.22
2019-02-21T12:31:57.523Z,98940.61
2019-02-21T12:33:00.621Z,98942.39
2019-02-21T12:34:07.033Z,98942.39
2019-02-21T12:35:09.878Z,98938.33
2019-02-21T12:36:12.743Z,98934.37
2019-02-21T12:37:17.889Z,98934.37
2019-02-21T12:38:22.937Z,98932.94
2019-02-21T12:39:26.199Z,98932.51
2019-02-21T12:40:29.032Z,98927.19
2019-02-21T12:41:34.794Z,98926.34
2019-02-21T12:42:40.440Z,98918.20
2019-02-21T12:43:43.272Z,98936.39
2019-02-21T12:44:47.868Z,98936.39
2019-02-21T12:45:54.457Z,98934.24
2019-02-21T12:47:06.319Z,98933.55
2019-02-21T12:48:09.435Z,98925.08
2019-02-21T12:49:15.378Z,98937.27
2019-02-21T12:50:18.155Z,98928.14
2019-02-21T12:51:21.008Z,98928.14
2019-02-21T12:52:25.747Z,98925.84
2019-02-21T12:53:30.058Z,98925.84
2019-02-21T12:54:32.997Z,98925.39
2019-02-21T12:55:35.934Z,98921.84
2019-02-21T12:56:41.235Z,98920.41
2019-02-21T12:57:45.896Z,98920.41
2019-02-21T12:58:50.790Z,98924.48
2019-02-21T12:59:53.611Z,98932.30
2019-02-21T13:00:56.539Z,98926.75
2019-02-21T13:01:59.304Z,98929.37
2019-02-21T13:03:02.206Z,98918.37
2019-02-21T13:04:07.973Z,98925.74
2019-02-21T13:05:11.783Z,98924.78
2019-02-21T13:06:14.684Z,98924.78
2019-02-21T13:07:18.503Z,98933.02
2019-02-21T13:08:25.940Z,98933.02
2019-02-21T13:09:28.742Z,98921.88